sensor_id;sensor_type;location;lat;lon;timestamp;temperature;humidity
52565;DHT22;38460;53.106;7.004;2024-01-07T00:01:35;-0.70;99.90
52565;DHT22;38460;53.106;7.004;2024-01-07T00:04:01;-0.60;99.90
52565;DHT22;38460;53.106;7.004;2024-01-07T00:06:26;-0.10;99.90
52565;DHT22;38460;53.106;7.004;2024-01-07T00:08:52;-0.60;99.90
52565;DHT22;38460;53.106;7.004;2024-01-07T00:11:18;-0.60;99.90
52565;DHT22;38460;53.106;7.004;2024-01-07T00:13:44;-0.60;99.90
52565;DHT22;38460;53.106;7.004;2024-01-07T00:16:10;-0.50;99.90
52565;DHT22;38460;53.106;7.004;2024-01-07T00:18:36;0.10;99.90
52565;DHT22;38460;53.106;7.004;2024-01-07T00:21:01;-0.60;99.90
52565;DHT22;38460;53.106;7.004;2024-01-07T00:23:27;-0.60;99.90
52565;DHT22;38460;53.106;7.004;2024-01-07T00:25:53;-0.60;99.90
52565;DHT22;38460;53.106;7.004;2024-01-07T00:28:18;-0.60;99.90
52565;DHT22;38460;53.106;7.004;2024-01-07T00:30:44;-0.60;99.90
52565;DHT22;38460;53.106;7.004;2024-01-07T00:33:11;-0.60;99.90
52565;DHT22;38460;53.106;7.004;2024-01-07T00:35:37;-0.60;99.90
52565;DHT22;38460;53.106;7.004;2024-01-07T00:38:03;-0.20;99.90
52565;DHT22;38460;53.106;7.004;2024-01-07T00:40:28;-0.60;99.90
52565;DHT22;38460;53.106;7.004;2024-01-07T00:42:54;-0.40;99.90
52565;DHT22;38460;53.106;7.004;2024-01-07T00:45:20;-0.60;99.90
52565;DHT22;38460;53.106;7.004;2024-01-07T00:47:47;-0.30;99.90
52565;DHT22;38460;53.106;7.004;2024-01-07T00:50:13;-0.60;99.90
52565;DHT22;38460;53.106;7.004;2024-01-07T00:52:38;-0.70;99.90
52565;DHT22;38460;53.106;7.004;2024-01-07T00:55:05;-0.60;99.90
52565;DHT22;38460;53.106;7.004;2024-01-07T00:57:32;-0.70;99.90
52565;DHT22;38460;53.106;7.004;2024-01-07T00:59:59;0.10;99.90
52565;DHT22;38460;53.106;7.004;2024-01-07T01:02:25;-0.70;99.90
52565;DHT22;38460;53.106;7.004;2024-01-07T01:04:51;-0.70;99.90
52565;DHT22;38460;53.106;7.004;2024-01-07T01:07:17;-0.30;99.90
52565;DHT22;38460;53.106;7.004;2024-01-07T01:09:42;-0.70;99.90
52565;DHT22;38460;53.106;7.004;2024-01-07T01:12:08;-0.70;99.90
52565;DHT22;38460;53.106;7.004;2024-01-07T01:14:34;-0.10;99.90
52565;DHT22;38460;53.106;7.004;2024-01-07T01:16:59;-0.20;99.90
52565;DHT22;38460;53.106;7.004;2024-01-07T01:19:26;-0.70;99.90
52565;DHT22;38460;53.106;7.004;2024-01-07T01:21:52;-0.70;99.90
52565;DHT22;38460;53.106;7.004;2024-01-07T01:24:18;-0.60;99.90
52565;DHT22;38460;53.106;7.004;2024-01-07T01:26:43;-0.10;99.90
52565;DHT22;38460;53.106;7.004;2024-01-07T01:29:09;-0.70;99.90
52565;DHT22;38460;53.106;7.004;2024-01-07T01:31:35;-0.70;99.90
52565;DHT22;38460;53.106;7.004;2024-01-07T01:34:00;-0.80;99.90
52565;DHT22;38460;53.106;7.004;2024-01-07T01:36:26;-0.70;99.90
52565;DHT22;38460;53.106;7.004;2024-01-07T01:38:52;-0.80;99.90
52565;DHT22;38460;53.106;7.004;2024-01-07T01:41:17;-0.70;99.90
52565;DHT22;38460;53.106;7.004;2024-01-07T01:43:43;-0.80;99.90
52565;DHT22;38460;53.106;7.004;2024-01-07T01:46:09;-0.80;99.90
52565;DHT22;38460;53.106;7.004;2024-01-07T01:48:37;-0.60;99.90
52565;DHT22;38460;53.106;7.004;2024-01-07T01:51:04;-0.80;99.90
52565;DHT22;38460;53.106;7.004;2024-01-07T01:53:29;-0.40;99.90
52565;DHT22;38460;53.106;7.004;2024-01-07T01:55:57;-0.80;99.90
52565;DHT22;38460;53.106;7.004;2024-01-07T01:58:24;-0.50;99.90
52565;DHT22;38460;53.106;7.004;2024-01-07T02:00:50;-0.80;99.90
52565;DHT22;38460;53.106;7.004;2024-01-07T02:03:19;-0.80;99.90
52565;DHT22;38460;53.106;7.004;2024-01-07T02:05:45;-0.80;99.90
52565;DHT22;38460;53.106;7.004;2024-01-07T02:08:11;-0.80;99.90
52565;DHT22;38460;53.106;7.004;2024-01-07T02:10:37;-0.60;99.90
52565;DHT22;38460;53.106;7.004;2024-01-07T02:13:03;-0.80;99.90
52565;DHT22;38460;53.106;7.004;2024-01-07T02:15:30;-0.80;99.90
52565;DHT22;38460;53.106;7.004;2024-01-07T02:17:56;-0.80;99.90
52565;DHT22;38460;53.106;7.004;2024-01-07T02:20:22;-0.80;99.90
52565;DHT22;38460;53.106;7.004;2024-01-07T02:22:48;-0.40;99.90
52565;DHT22;38460;53.106;7.004;2024-01-07T02:25:14;-0.80;99.90
52565;DHT22;38460;53.106;7.004;2024-01-07T02:27:40;-0.80;99.90
52565;DHT22;38460;53.106;7.004;2024-01-07T02:30:06;-0.50;99.90
52565;DHT22;38460;53.106;7.004;2024-01-07T02:32:32;-0.80;99.90
52565;DHT22;38460;53.106;7.004;2024-01-07T02:35:00;-0.50;99.90
52565;DHT22;38460;53.106;7.004;2024-01-07T02:37:26;-0.80;99.90
52565;DHT22;38460;53.106;7.004;2024-01-07T02:39:52;-0.80;99.90
52565;DHT22;38460;53.106;7.004;2024-01-07T02:42:17;-0.80;99.90
52565;DHT22;38460;53.106;7.004;2024-01-07T02:44:43;-0.80;99.90
52565;DHT22;38460;53.106;7.004;2024-01-07T02:47:09;-0.80;99.90
52565;DHT22;38460;53.106;7.004;2024-01-07T02:49:35;-0.70;99.90
52565;DHT22;38460;53.106;7.004;2024-01-07T02:52:00;-0.90;99.90
52565;DHT22;38460;53.106;7.004;2024-01-07T02:54:26;-0.30;99.90
52565;DHT22;38460;53.106;7.004;2024-01-07T02:56:52;-0.90;99.90
52565;DHT22;38460;53.106;7.004;2024-01-07T02:59:17;-0.90;99.90
52565;DHT22;38460;53.106;7.004;2024-01-07T03:01:43;-0.80;99.90
52565;DHT22;38460;53.106;7.004;2024-01-07T03:04:12;-0.70;99.90
52565;DHT22;38460;53.106;7.004;2024-01-07T03:06:38;-0.50;99.90
52565;DHT22;38460;53.106;7.004;2024-01-07T03:09:03;-0.60;99.90
52565;DHT22;38460;53.106;7.004;2024-01-07T03:11:29;-0.90;99.90
52565;DHT22;38460;53.106;7.004;2024-01-07T03:13:58;-0.90;99.90
52565;DHT22;38460;53.106;7.004;2024-01-07T03:16:25;-0.30;99.90
52565;DHT22;38460;53.106;7.004;2024-01-07T03:18:51;-0.90;99.90
52565;DHT22;38460;53.106;7.004;2024-01-07T03:21:18;-0.20;99.90
52565;DHT22;38460;53.106;7.004;2024-01-07T03:23:45;-0.20;99.90
52565;DHT22;38460;53.106;7.004;2024-01-07T03:26:12;-0.90;99.90
52565;DHT22;38460;53.106;7.004;2024-01-07T03:28:37;-0.90;99.90
52565;DHT22;38460;53.106;7.004;2024-01-07T03:31:12;-0.90;99.90
52565;DHT22;38460;53.106;7.004;2024-01-07T03:33:39;-0.90;99.90
52565;DHT22;38460;53.106;7.004;2024-01-07T03:36:09;-0.90;99.90
52565;DHT22;38460;53.106;7.004;2024-01-07T03:38:36;-0.90;99.90
52565;DHT22;38460;53.106;7.004;2024-01-07T03:41:02;-0.90;99.90
52565;DHT22;38460;53.106;7.004;2024-01-07T03:43:28;-0.90;99.90
52565;DHT22;38460;53.106;7.004;2024-01-07T03:45:54;-0.90;99.90
52565;DHT22;38460;53.106;7.004;2024-01-07T03:48:20;-0.90;99.90
52565;DHT22;38460;53.106;7.004;2024-01-07T03:50:46;-0.90;99.90
52565;DHT22;38460;53.106;7.004;2024-01-07T03:53:12;-0.90;99.90
52565;DHT22;38460;53.106;7.004;2024-01-07T03:55:39;-0.90;99.90
52565;DHT22;38460;53.106;7.004;2024-01-07T03:58:05;-0.90;99.90
52565;DHT22;38460;53.106;7.004;2024-01-07T04:00:32;-0.70;99.90
52565;DHT22;38460;53.106;7.004;2024-01-07T04:02:58;-0.60;99.90
52565;DHT22;38460;53.106;7.004;2024-01-07T04:05:24;-0.90;99.90
52565;DHT22;38460;53.106;7.004;2024-01-07T04:07:49;-0.90;99.90
52565;DHT22;38460;53.106;7.004;2024-01-07T04:10:16;-0.90;99.90
52565;DHT22;38460;53.106;7.004;2024-01-07T04:12:42;-0.80;99.90
52565;DHT22;38460;53.106;7.004;2024-01-07T04:15:09;-0.90;99.90
52565;DHT22;38460;53.106;7.004;2024-01-07T04:17:35;-0.90;99.90
52565;DHT22;38460;53.106;7.004;2024-01-07T04:20:01;0.10;99.90
52565;DHT22;38460;53.106;7.004;2024-01-07T04:22:27;-0.90;99.90
52565;DHT22;38460;53.106;7.004;2024-01-07T04:24:52;-0.90;99.90
52565;DHT22;38460;53.106;7.004;2024-01-07T04:27:18;0.10;99.90
52565;DHT22;38460;53.106;7.004;2024-01-07T04:29:44;-0.90;99.90
52565;DHT22;38460;53.106;7.004;2024-01-07T04:32:09;-0.60;99.90
52565;DHT22;38460;53.106;7.004;2024-01-07T04:34:35;-0.90;99.90
52565;DHT22;38460;53.106;7.004;2024-01-07T04:37:01;-0.90;99.90
52565;DHT22;38460;53.106;7.004;2024-01-07T04:39:26;-0.90;99.90
52565;DHT22;38460;53.106;7.004;2024-01-07T04:41:52;-0.90;99.90
52565;DHT22;38460;53.106;7.004;2024-01-07T04:44:18;-0.90;99.90
52565;DHT22;38460;53.106;7.004;2024-01-07T04:46:44;-0.90;99.90
52565;DHT22;38460;53.106;7.004;2024-01-07T04:49:10;-0.90;99.90
52565;DHT22;38460;53.106;7.004;2024-01-07T04:51:35;-0.10;99.90
52565;DHT22;38460;53.106;7.004;2024-01-07T04:54:04;-0.90;99.90
52565;DHT22;38460;53.106;7.004;2024-01-07T04:56:32;-0.90;99.90
52565;DHT22;38460;53.106;7.004;2024-01-07T04:58:57;0.00;99.90
52565;DHT22;38460;53.106;7.004;2024-01-07T05:01:23;-0.90;99.90
52565;DHT22;38460;53.106;7.004;2024-01-07T05:03:49;-0.90;99.90
52565;DHT22;38460;53.106;7.004;2024-01-07T05:06:15;-0.90;99.90
52565;DHT22;38460;53.106;7.004;2024-01-07T05:08:41;-0.90;99.90
52565;DHT22;38460;53.106;7.004;2024-01-07T05:11:07;-0.90;99.90
52565;DHT22;38460;53.106;7.004;2024-01-07T05:13:34;-0.90;99.90
52565;DHT22;38460;53.106;7.004;2024-01-07T05:16:00;-0.80;99.90
52565;DHT22;38460;53.106;7.004;2024-01-07T05:18:26;0.00;99.90
52565;DHT22;38460;53.106;7.004;2024-01-07T05:20:52;-0.90;99.90
52565;DHT22;38460;53.106;7.004;2024-01-07T05:23:18;-0.90;99.90
52565;DHT22;38460;53.106;7.004;2024-01-07T05:25:45;-0.90;99.90
52565;DHT22;38460;53.106;7.004;2024-01-07T05:28:11;-0.90;99.90
52565;DHT22;38460;53.106;7.004;2024-01-07T05:30:38;-0.90;99.90
52565;DHT22;38460;53.106;7.004;2024-01-07T05:33:04;0.00;99.90
52565;DHT22;38460;53.106;7.004;2024-01-07T05:35:30;-0.90;99.90
52565;DHT22;38460;53.106;7.004;2024-01-07T05:37:56;-0.90;99.90
52565;DHT22;38460;53.106;7.004;2024-01-07T05:40:22;-0.60;99.90
52565;DHT22;38460;53.106;7.004;2024-01-07T05:42:48;-0.70;99.90
52565;DHT22;38460;53.106;7.004;2024-01-07T05:45:14;-0.60;99.90
52565;DHT22;38460;53.106;7.004;2024-01-07T05:47:39;-0.90;99.90
52565;DHT22;38460;53.106;7.004;2024-01-07T05:50:07;-0.90;99.90
52565;DHT22;38460;53.106;7.004;2024-01-07T05:52:33;-0.90;99.90
52565;DHT22;38460;53.106;7.004;2024-01-07T05:54:59;-0.90;99.90
52565;DHT22;38460;53.106;7.004;2024-01-07T05:57:25;-0.90;99.90
52565;DHT22;38460;53.106;7.004;2024-01-07T05:59:50;-0.80;99.90
52565;DHT22;38460;53.106;7.004;2024-01-07T06:02:17;0.10;99.90
52565;DHT22;38460;53.106;7.004;2024-01-07T06:04:43;-0.20;99.90
52565;DHT22;38460;53.106;7.004;2024-01-07T06:07:09;-0.70;99.90
52565;DHT22;38460;53.106;7.004;2024-01-07T06:09:34;-0.10;99.90
52565;DHT22;38460;53.106;7.004;2024-01-07T06:12:00;-0.90;99.90
52565;DHT22;38460;53.106;7.004;2024-01-07T06:14:26;-0.70;99.90
52565;DHT22;38460;53.106;7.004;2024-01-07T06:16:52;-0.10;99.90
52565;DHT22;38460;53.106;7.004;2024-01-07T06:19:18;-0.80;99.90
52565;DHT22;38460;53.106;7.004;2024-01-07T06:21:44;-0.70;99.90
52565;DHT22;38460;53.106;7.004;2024-01-07T06:24:11;-0.90;99.90
52565;DHT22;38460;53.106;7.004;2024-01-07T06:26:36;0.20;99.90
52565;DHT22;38460;53.106;7.004;2024-01-07T06:29:02;-0.10;99.90
52565;DHT22;38460;53.106;7.004;2024-01-07T06:31:28;-0.10;99.90
52565;DHT22;38460;53.106;7.004;2024-01-07T06:33:54;-0.90;99.90
52565;DHT22;38460;53.106;7.004;2024-01-07T06:36:24;-0.10;99.90
52565;DHT22;38460;53.106;7.004;2024-01-07T06:38:50;-0.90;99.90
52565;DHT22;38460;53.106;7.004;2024-01-07T06:41:16;-0.20;99.90
52565;DHT22;38460;53.106;7.004;2024-01-07T06:43:41;-0.90;99.90
52565;DHT22;38460;53.106;7.004;2024-01-07T06:46:07;-0.80;99.90
52565;DHT22;38460;53.106;7.004;2024-01-07T06:48:33;-0.90;99.90
52565;DHT22;38460;53.106;7.004;2024-01-07T06:50:59;-0.90;99.90
52565;DHT22;38460;53.106;7.004;2024-01-07T06:53:24;-0.30;99.90
52565;DHT22;38460;53.106;7.004;2024-01-07T06:55:50;-0.90;99.90
52565;DHT22;38460;53.106;7.004;2024-01-07T06:58:16;-1.00;99.90
52565;DHT22;38460;53.106;7.004;2024-01-07T07:00:41;-0.90;99.90
52565;DHT22;38460;53.106;7.004;2024-01-07T07:03:08;-1.00;99.90
52565;DHT22;38460;53.106;7.004;2024-01-07T07:05:34;-1.00;99.90
52565;DHT22;38460;53.106;7.004;2024-01-07T07:08:00;-0.60;99.90
52565;DHT22;38460;53.106;7.004;2024-01-07T07:10:26;-1.00;99.90
52565;DHT22;38460;53.106;7.004;2024-01-07T07:12:52;-1.00;99.90
52565;DHT22;38460;53.106;7.004;2024-01-07T07:15:18;-0.40;99.90
52565;DHT22;38460;53.106;7.004;2024-01-07T07:17:43;-1.10;99.90
52565;DHT22;38460;53.106;7.004;2024-01-07T07:20:10;-1.10;99.90
52565;DHT22;38460;53.106;7.004;2024-01-07T07:22:36;-1.10;99.90
52565;DHT22;38460;53.106;7.004;2024-01-07T07:25:02;-1.20;99.90
52565;DHT22;38460;53.106;7.004;2024-01-07T07:27:28;-1.20;99.90
52565;DHT22;38460;53.106;7.004;2024-01-07T07:29:54;-1.30;99.90
52565;DHT22;38460;53.106;7.004;2024-01-07T07:32:19;-1.30;99.90
52565;DHT22;38460;53.106;7.004;2024-01-07T07:34:46;-0.50;99.90
52565;DHT22;38460;53.106;7.004;2024-01-07T07:37:12;-0.90;99.90
52565;DHT22;38460;53.106;7.004;2024-01-07T07:39:38;-1.30;99.90
52565;DHT22;38460;53.106;7.004;2024-01-07T07:42:04;-1.20;99.90
52565;DHT22;38460;53.106;7.004;2024-01-07T07:44:30;-1.40;99.90
52565;DHT22;38460;53.106;7.004;2024-01-07T07:46:55;-1.40;99.90
52565;DHT22;38460;53.106;7.004;2024-01-07T07:49:21;-1.40;99.90
52565;DHT22;38460;53.106;7.004;2024-01-07T07:51:47;-1.40;99.90
52565;DHT22;38460;53.106;7.004;2024-01-07T07:54:12;-1.50;99.90
52565;DHT22;38460;53.106;7.004;2024-01-07T07:56:38;-1.50;99.90
52565;DHT22;38460;53.106;7.004;2024-01-07T07:59:04;-1.50;99.90
52565;DHT22;38460;53.106;7.004;2024-01-07T08:01:29;-1.50;99.90
52565;DHT22;38460;53.106;7.004;2024-01-07T08:03:55;-1.50;99.90
52565;DHT22;38460;53.106;7.004;2024-01-07T08:06:21;-1.50;99.90
52565;DHT22;38460;53.106;7.004;2024-01-07T08:08:47;-1.50;99.90
52565;DHT22;38460;53.106;7.004;2024-01-07T08:11:13;-0.60;99.90
52565;DHT22;38460;53.106;7.004;2024-01-07T08:13:38;-1.40;99.90
52565;DHT22;38460;53.106;7.004;2024-01-07T08:16:04;-1.50;99.90
52565;DHT22;38460;53.106;7.004;2024-01-07T08:18:35;-1.40;99.90
52565;DHT22;38460;53.106;7.004;2024-01-07T08:21:01;-1.40;99.90
52565;DHT22;38460;53.106;7.004;2024-01-07T08:23:27;-1.30;99.90
52565;DHT22;38460;53.106;7.004;2024-01-07T08:25:52;-1.30;99.90
52565;DHT22;38460;53.106;7.004;2024-01-07T08:28:18;-0.70;99.90
52565;DHT22;38460;53.106;7.004;2024-01-07T08:30:46;-1.10;99.90
52565;DHT22;38460;53.106;7.004;2024-01-07T08:33:12;-1.20;99.90
52565;DHT22;38460;53.106;7.004;2024-01-07T08:35:37;-1.20;99.90
52565;DHT22;38460;53.106;7.004;2024-01-07T08:38:03;-0.50;99.90
52565;DHT22;38460;53.106;7.004;2024-01-07T08:40:30;-1.20;99.90
52565;DHT22;38460;53.106;7.004;2024-01-07T08:42:56;-1.10;99.90
52565;DHT22;38460;53.106;7.004;2024-01-07T08:45:22;-1.10;99.90
52565;DHT22;38460;53.106;7.004;2024-01-07T08:47:48;-1.10;99.90
52565;DHT22;38460;53.106;7.004;2024-01-07T08:50:14;-0.80;99.90
52565;DHT22;38460;53.106;7.004;2024-01-07T08:52:40;-1.10;99.90
52565;DHT22;38460;53.106;7.004;2024-01-07T08:55:06;-1.10;99.90
52565;DHT22;38460;53.106;7.004;2024-01-07T08:57:33;-1.00;99.90
52565;DHT22;38460;53.106;7.004;2024-01-07T08:59:58;-1.00;99.90
52565;DHT22;38460;53.106;7.004;2024-01-07T09:02:24;-0.80;99.90
52565;DHT22;38460;53.106;7.004;2024-01-07T09:04:51;-0.60;99.90
52565;DHT22;38460;53.106;7.004;2024-01-07T09:07:17;-1.00;99.90
52565;DHT22;38460;53.106;7.004;2024-01-07T09:09:44;-0.90;99.90
52565;DHT22;38460;53.106;7.004;2024-01-07T09:12:10;-0.90;99.90
52565;DHT22;38460;53.106;7.004;2024-01-07T09:14:37;-0.90;99.90
52565;DHT22;38460;53.106;7.004;2024-01-07T09:17:03;-0.90;99.90
52565;DHT22;38460;53.106;7.004;2024-01-07T09:19:29;-0.90;99.90
52565;DHT22;38460;53.106;7.004;2024-01-07T09:21:55;-0.80;99.90
52565;DHT22;38460;53.106;7.004;2024-01-07T09:24:21;-0.80;99.90
52565;DHT22;38460;53.106;7.004;2024-01-07T09:26:46;-0.80;99.90
52565;DHT22;38460;53.106;7.004;2024-01-07T09:29:12;-0.70;99.90
52565;DHT22;38460;53.106;7.004;2024-01-07T09:31:39;-0.70;99.90
52565;DHT22;38460;53.106;7.004;2024-01-07T09:34:05;-0.70;99.90
52565;DHT22;38460;53.106;7.004;2024-01-07T09:36:32;0.00;99.90
52565;DHT22;38460;53.106;7.004;2024-01-07T09:38:58;-0.60;99.90
52565;DHT22;38460;53.106;7.004;2024-01-07T09:41:24;-0.60;99.90
52565;DHT22;38460;53.106;7.004;2024-01-07T09:43:51;-0.60;99.90
52565;DHT22;38460;53.106;7.004;2024-01-07T09:46:17;0.60;99.90
52565;DHT22;38460;53.106;7.004;2024-01-07T09:48:43;-0.50;99.90
52565;DHT22;38460;53.106;7.004;2024-01-07T09:51:10;-0.50;99.90
52565;DHT22;38460;53.106;7.004;2024-01-07T09:53:38;-0.50;99.90
52565;DHT22;38460;53.106;7.004;2024-01-07T09:58:33;-0.40;99.90
52565;DHT22;38460;53.106;7.004;2024-01-07T10:00:59;-0.40;99.90
52565;DHT22;38460;53.106;7.004;2024-01-07T10:03:25;-0.40;99.90
52565;DHT22;38460;53.106;7.004;2024-01-07T10:05:52;-0.30;99.90
52565;DHT22;38460;53.106;7.004;2024-01-07T10:08:17;0.10;99.90
52565;DHT22;38460;53.106;7.004;2024-01-07T10:10:43;-0.40;99.90
52565;DHT22;38460;53.106;7.004;2024-01-07T10:13:09;-0.30;99.90
52565;DHT22;38460;53.106;7.004;2024-01-07T10:15:34;-0.30;99.90
52565;DHT22;38460;53.106;7.004;2024-01-07T10:18:04;0.40;99.90
52565;DHT22;38460;53.106;7.004;2024-01-07T10:20:32;-0.30;99.90
52565;DHT22;38460;53.106;7.004;2024-01-07T10:22:59;-0.20;99.90
52565;DHT22;38460;53.106;7.004;2024-01-07T10:25:25;-0.20;99.90
52565;DHT22;38460;53.106;7.004;2024-01-07T10:27:50;-0.20;99.90
52565;DHT22;38460;53.106;7.004;2024-01-07T10:30:17;-0.20;99.90
52565;DHT22;38460;53.106;7.004;2024-01-07T10:32:43;-0.20;99.90
52565;DHT22;38460;53.106;7.004;2024-01-07T10:35:12;0.60;99.90
52565;DHT22;38460;53.106;7.004;2024-01-07T10:37:40;-0.10;99.90
52565;DHT22;38460;53.106;7.004;2024-01-07T10:40:07;-0.10;99.90
52565;DHT22;38460;53.106;7.004;2024-01-07T10:42:34;-0.10;99.90
52565;DHT22;38460;53.106;7.004;2024-01-07T10:45:00;-0.10;99.90
52565;DHT22;38460;53.106;7.004;2024-01-07T10:47:32;-0.10;99.90
52565;DHT22;38460;53.106;7.004;2024-01-07T10:50:02;-0.10;99.90
52565;DHT22;38460;53.106;7.004;2024-01-07T10:52:28;0.00;99.90
52565;DHT22;38460;53.106;7.004;2024-01-07T10:54:56;0.00;99.90
52565;DHT22;38460;53.106;7.004;2024-01-07T10:57:34;0.10;99.90
52565;DHT22;38460;53.106;7.004;2024-01-07T11:00:02;0.10;99.90
52565;DHT22;38460;53.106;7.004;2024-01-07T11:02:37;0.10;99.90
52565;DHT22;38460;53.106;7.004;2024-01-07T11:05:20;0.10;99.90
52565;DHT22;38460;53.106;7.004;2024-01-07T11:07:59;0.20;99.90
52565;DHT22;38460;53.106;7.004;2024-01-07T11:10:34;0.20;99.90
52565;DHT22;38460;53.106;7.004;2024-01-07T11:13:02;0.20;99.90
52565;DHT22;38460;53.106;7.004;2024-01-07T11:18:22;0.20;99.90
52565;DHT22;38460;53.106;7.004;2024-01-07T11:20:52;0.20;99.90
52565;DHT22;38460;53.106;7.004;2024-01-07T11:23:35;0.20;99.90
52565;DHT22;38460;53.106;7.004;2024-01-07T11:26:06;0.20;99.90
52565;DHT22;38460;53.106;7.004;2024-01-07T11:28:53;0.20;99.90
52565;DHT22;38460;53.106;7.004;2024-01-07T11:31:21;0.10;99.90
52565;DHT22;38460;53.106;7.004;2024-01-07T11:33:50;0.60;99.90
52565;DHT22;38460;53.106;7.004;2024-01-07T11:36:17;0.10;99.90
52565;DHT22;38460;53.106;7.004;2024-01-07T11:38:48;0.30;99.90
52565;DHT22;38460;53.106;7.004;2024-01-07T11:41:15;0.30;99.90
52565;DHT22;38460;53.106;7.004;2024-01-07T11:43:57;0.10;99.90
52565;DHT22;38460;53.106;7.004;2024-01-07T11:46:29;0.10;99.90
52565;DHT22;38460;53.106;7.004;2024-01-07T11:48:59;0.20;99.90
52565;DHT22;38460;53.106;7.004;2024-01-07T11:51:29;0.20;99.90
52565;DHT22;38460;53.106;7.004;2024-01-07T11:53:57;0.20;99.90
52565;DHT22;38460;53.106;7.004;2024-01-07T11:56:25;0.80;99.90
52565;DHT22;38460;53.106;7.004;2024-01-07T11:58:51;0.10;99.90
52565;DHT22;38460;53.106;7.004;2024-01-07T12:01:18;0.20;99.90
52565;DHT22;38460;53.106;7.004;2024-01-07T12:03:44;0.20;99.90
52565;DHT22;38460;53.106;7.004;2024-01-07T12:06:11;0.10;99.90
52565;DHT22;38460;53.106;7.004;2024-01-07T12:08:43;0.10;99.90
52565;DHT22;38460;53.106;7.004;2024-01-07T12:11:11;0.00;99.90
52565;DHT22;38460;53.106;7.004;2024-01-07T12:13:37;0.00;99.90
52565;DHT22;38460;53.106;7.004;2024-01-07T12:16:07;-0.10;99.90
52565;DHT22;38460;53.106;7.004;2024-01-07T12:18:33;-0.10;99.90
52565;DHT22;38460;53.106;7.004;2024-01-07T12:21:00;-0.10;99.90
52565;DHT22;38460;53.106;7.004;2024-01-07T12:23:26;-0.10;99.90
52565;DHT22;38460;53.106;7.004;2024-01-07T12:25:53;-0.10;99.90
52565;DHT22;38460;53.106;7.004;2024-01-07T12:28:18;-0.10;99.90
52565;DHT22;38460;53.106;7.004;2024-01-07T12:30:47;0.20;99.90
52565;DHT22;38460;53.106;7.004;2024-01-07T12:33:22;-0.20;99.90
52565;DHT22;38460;53.106;7.004;2024-01-07T12:35:48;-0.10;99.90
52565;DHT22;38460;53.106;7.004;2024-01-07T12:38:14;-0.20;99.90
52565;DHT22;38460;53.106;7.004;2024-01-07T12:40:40;-0.10;99.90
52565;DHT22;38460;53.106;7.004;2024-01-07T12:43:06;-0.10;99.90
52565;DHT22;38460;53.106;7.004;2024-01-07T12:45:35;0.00;99.90
52565;DHT22;38460;53.106;7.004;2024-01-07T12:48:00;0.00;99.90
52565;DHT22;38460;53.106;7.004;2024-01-07T12:50:28;0.40;99.90
52565;DHT22;38460;53.106;7.004;2024-01-07T12:52:55;0.60;99.90
52565;DHT22;38460;53.106;7.004;2024-01-07T12:55:22;0.20;99.90
52565;DHT22;38460;53.106;7.004;2024-01-07T12:57:48;0.20;99.90
52565;DHT22;38460;53.106;7.004;2024-01-07T13:00:15;0.20;99.90
52565;DHT22;38460;53.106;7.004;2024-01-07T13:02:41;0.20;99.90
52565;DHT22;38460;53.106;7.004;2024-01-07T13:05:07;0.20;99.90
52565;DHT22;38460;53.106;7.004;2024-01-07T13:07:33;0.20;99.90
52565;DHT22;38460;53.106;7.004;2024-01-07T13:09:59;0.20;99.90
52565;DHT22;38460;53.106;7.004;2024-01-07T13:12:25;0.20;99.90
52565;DHT22;38460;53.106;7.004;2024-01-07T13:14:52;0.20;99.90
52565;DHT22;38460;53.106;7.004;2024-01-07T13:17:18;0.60;99.90
52565;DHT22;38460;53.106;7.004;2024-01-07T13:19:44;0.90;99.90
52565;DHT22;38460;53.106;7.004;2024-01-07T13:22:10;0.10;99.90
52565;DHT22;38460;53.106;7.004;2024-01-07T13:24:36;0.50;99.90
52565;DHT22;38460;53.106;7.004;2024-01-07T13:27:02;0.10;99.90
52565;DHT22;38460;53.106;7.004;2024-01-07T13:29:28;0.10;99.90
52565;DHT22;38460;53.106;7.004;2024-01-07T13:31:53;0.10;99.90
52565;DHT22;38460;53.106;7.004;2024-01-07T13:34:19;0.30;99.90
52565;DHT22;38460;53.106;7.004;2024-01-07T13:36:45;0.10;99.90
52565;DHT22;38460;53.106;7.004;2024-01-07T13:39:12;0.10;99.90
52565;DHT22;38460;53.106;7.004;2024-01-07T13:41:38;0.10;99.90
52565;DHT22;38460;53.106;7.004;2024-01-07T13:44:04;0.10;99.90
52565;DHT22;38460;53.106;7.004;2024-01-07T13:46:30;0.30;99.90
52565;DHT22;38460;53.106;7.004;2024-01-07T13:48:56;0.30;99.90
52565;DHT22;38460;53.106;7.004;2024-01-07T13:51:21;0.30;99.90
52565;DHT22;38460;53.106;7.004;2024-01-07T13:53:47;0.80;99.90
52565;DHT22;38460;53.106;7.004;2024-01-07T13:56:13;0.00;99.90
52565;DHT22;38460;53.106;7.004;2024-01-07T13:58:39;0.80;99.90
52565;DHT22;38460;53.106;7.004;2024-01-07T14:01:05;0.00;99.90
52565;DHT22;38460;53.106;7.004;2024-01-07T14:03:31;0.00;99.90
52565;DHT22;38460;53.106;7.004;2024-01-07T14:05:58;0.00;99.90
52565;DHT22;38460;53.106;7.004;2024-01-07T14:08:24;0.00;99.90
52565;DHT22;38460;53.106;7.004;2024-01-07T14:10:50;-0.10;99.90
52565;DHT22;38460;53.106;7.004;2024-01-07T14:13:15;0.60;99.90
52565;DHT22;38460;53.106;7.004;2024-01-07T14:15:42;-0.10;99.90
52565;DHT22;38460;53.106;7.004;2024-01-07T14:18:08;0.30;99.90
52565;DHT22;38460;53.106;7.004;2024-01-07T14:20:35;-0.10;99.90
52565;DHT22;38460;53.106;7.004;2024-01-07T14:23:01;-0.10;99.90
52565;DHT22;38460;53.106;7.004;2024-01-07T14:25:27;-0.20;99.90
52565;DHT22;38460;53.106;7.004;2024-01-07T14:27:52;-0.20;99.90
52565;DHT22;38460;53.106;7.004;2024-01-07T14:30:18;0.20;99.90
52565;DHT22;38460;53.106;7.004;2024-01-07T14:32:44;0.30;99.90
52565;DHT22;38460;53.106;7.004;2024-01-07T14:35:11;-0.30;99.90
52565;DHT22;38460;53.106;7.004;2024-01-07T14:37:38;0.50;99.90
52565;DHT22;38460;53.106;7.004;2024-01-07T14:40:06;0.20;99.90
52565;DHT22;38460;53.106;7.004;2024-01-07T14:42:31;-0.40;99.90
52565;DHT22;38460;53.106;7.004;2024-01-07T14:44:57;-0.40;99.90
52565;DHT22;38460;53.106;7.004;2024-01-07T14:47:23;-0.40;99.90
52565;DHT22;38460;53.106;7.004;2024-01-07T14:49:49;-0.50;99.90
52565;DHT22;38460;53.106;7.004;2024-01-07T14:52:14;0.10;99.90
52565;DHT22;38460;53.106;7.004;2024-01-07T14:54:40;-0.30;99.90
52565;DHT22;38460;53.106;7.004;2024-01-07T14:57:06;-0.30;99.90
52565;DHT22;38460;53.106;7.004;2024-01-07T14:59:34;-0.50;99.90
52565;DHT22;38460;53.106;7.004;2024-01-07T15:02:01;0.10;99.90
52565;DHT22;38460;53.106;7.004;2024-01-07T15:04:28;-0.50;99.90
52565;DHT22;38460;53.106;7.004;2024-01-07T15:06:53;-0.50;99.90
52565;DHT22;38460;53.106;7.004;2024-01-07T15:09:19;-0.60;99.90
52565;DHT22;38460;53.106;7.004;2024-01-07T15:11:46;-0.60;99.90
52565;DHT22;38460;53.106;7.004;2024-01-07T15:14:14;-0.60;99.90
52565;DHT22;38460;53.106;7.004;2024-01-07T15:16:40;-0.50;99.90
52565;DHT22;38460;53.106;7.004;2024-01-07T15:19:05;-0.70;99.90
52565;DHT22;38460;53.106;7.004;2024-01-07T15:21:31;-0.70;99.90
52565;DHT22;38460;53.106;7.004;2024-01-07T15:23:57;-0.70;99.90
52565;DHT22;38460;53.106;7.004;2024-01-07T15:26:23;-0.70;99.90
52565;DHT22;38460;53.106;7.004;2024-01-07T15:28:49;-0.80;99.90
52565;DHT22;38460;53.106;7.004;2024-01-07T15:31:14;0.00;99.90
52565;DHT22;38460;53.106;7.004;2024-01-07T15:33:40;-0.80;99.90
52565;DHT22;38460;53.106;7.004;2024-01-07T15:36:06;-0.90;99.90